Time;durP1;ratioP1;P1;durP2;ratioP2;P2;SDS_P1;SDS_P2;PMS_P1;PMS_P2;Temp;Humidity;BMP_temperature;BMP_pressure;BME280_temperature;BME280_humidity;BME280_pressure;Samples;Min_cycle;Max_cycle;Signal;HPM_P1;HPM_P2
2022/07/01 00:00:21;;;;;;;8.00;4.85;;;;;;;24.33;70.30;99303.03;5112511;28;20195;-58
2022/07/01 00:02:48;;;;;;;6.13;4.28;;;;;;;24.25;71.15;99295.75;5112948;28;20199;-58
2022/07/01 00:05:14;;;;;;;7.50;4.10;;;;;;;24.15;71.97;99289.56;5112307;28;20226;-59
2022/07/01 00:07:41;;;;;;;5.93;3.75;;;;;;;24.07;71.56;99278.78;5112516;27;20193;-58
2022/07/01 00:10:09;;;;;;;5.97;3.78;;;;;;;24.12;71.89;99289.81;5112247;28;20201;-58
2022/07/01 00:12:36;;;;;;;9.07;4.30;;;;;;;24.14;71.46;99288.72;5112269;28;20195;-59
2022/07/01 00:15:06;;;;;;;4.55;3.88;;;;;;;24.22;71.12;99296.03;5112076;28;20593;-57
2022/07/01 00:17:33;;;;;;;7.10;3.80;;;;;;;24.06;72.29;99304.44;5109348;28;20222;-58
2022/07/01 00:20:00;;;;;;;4.75;4.30;;;;;;;23.84;74.01;99300.19;5112256;28;20198;-57
2022/07/01 00:22:27;;;;;;;4.32;3.92;;;;;;;23.83;74.74;99293.19;5112307;28;20559;-57
2022/07/01 00:24:54;;;;;;;5.57;3.92;;;;;;;23.77;75.09;99288.44;5112366;28;20705;-58
2022/07/01 00:27:22;;;;;;;9.07;4.55;;;;;;;23.72;75.65;99290.63;5112091;28;20660;-61
2022/07/01 00:29:49;;;;;;;4.97;4.38;;;;;;;23.73;75.79;99294.97;5112077;28;20194;-59
2022/07/01 00:32:17;;;;;;;10.07;4.30;;;;;;;23.71;76.41;99290.78;5111719;28;20201;-58
2022/07/01 00:34:44;;;;;;;7.03;4.22;;;;;;;23.67;76.77;99279.63;5112237;28;20198;-60
2022/07/01 00:37:11;;;;;;;8.63;4.90;;;;;;;23.66;78.00;99287.69;5111989;28;20317;-59
2022/07/01 00:39:38;;;;;;;15.57;4.72;;;;;;;23.64;79.38;99271.09;5111798;28;20203;-58
2022/07/01 00:42:05;;;;;;;10.25;4.57;;;;;;;23.58;80.24;99268.97;5111730;28;20213;-58
2022/07/01 00:44:33;;;;;;;7.90;4.60;;;;;;;23.61;80.61;99272.19;5111771;28;21030;-59
2022/07/01 00:47:03;;;;;;;6.25;4.43;;;;;;;23.67;80.62;99274.31;5111633;28;20198;-58
2022/07/01 00:49:32;;;;;;;7.40;4.13;;;;;;;23.52;82.23;99280.94;5111802;28;20597;-58
2022/07/01 00:51:59;;;;;;;5.40;4.63;;;;;;;23.42;83.47;99275.56;5111628;28;20295;-58
2022/07/01 00:54:27;;;;;;;8.32;4.90;;;;;;;23.36;84.15;99278.72;5111660;28;20195;-59
2022/07/01 00:56:54;;;;;;;6.25;4.78;;;;;;;23.29;84.98;99272.25;5111359;28;20207;-58
2022/07/01 00:59:21;;;;;;;4.90;4.50;;;;;;;23.28;85.37;99273.22;5111368;28;20198;-59
2022/07/01 01:01:48;;;;;;;6.53;4.20;;;;;;;23.28;86.12;99267.09;5111587;28;20286;-59
2022/07/01 01:04:15;;;;;;;11.63;6.10;;;;;;;23.27;87.28;99281.31;5111394;28;20361;-57
2022/07/01 01:06:44;;;;;;;13.52;4.95;;;;;;;23.29;87.70;99276.72;5111411;28;20233;-55
2022/07/01 01:09:10;;;;;;;9.63;5.05;;;;;;;23.22;88.90;99273.75;5111115;28;20190;-58
2022/07/01 01:11:38;;;;;;;9.63;7.10;;;;;;;23.17;89.34;99276.78;5111164;28;20692;-59
2022/07/01 01:14:05;;;;;;;8.43;4.97;;;;;;;23.21;89.00;99281.84;5111038;28;20194;-58
2022/07/01 01:16:33;;;;;;;8.70;5.40;;;;;;;23.18;89.63;99267.88;5110912;28;20238;-55
2022/07/01 01:19:02;;;;;;;7.07;5.22;;;;;;;23.18;89.54;99278.47;5111017;28;20306;-56
2022/07/01 01:21:30;;;;;;;7.47;5.80;;;;;;;23.12;90.22;99273.72;5110978;28;20229;-56
2022/07/01 01:23:58;;;;;;;7.93;5.47;;;;;;;23.09;90.73;99275.75;5110817;28;20226;-55
2022/07/01 01:26:25;;;;;;;8.40;6.15;;;;;;;23.05;91.06;99271.69;5110265;28;20198;-56
2022/07/01 01:28:53;;;;;;;8.43;6.35;;;;;;;23.05;91.09;99271.69;5110805;28;20198;-57
2022/07/01 01:31:29;;;;;;;6.88;6.28;;;;;;;23.06;90.79;99271.56;5110736;28;20205;-57
2022/07/01 01:33:56;;;;;;;9.93;6.32;;;;;;;23.15;90.23;99273.44;5110784;28;20624;-57
2022/07/01 01:36:23;;;;;;;8.90;5.97;;;;;;;23.22;89.05;99262.34;5110705;28;20516;-55
2022/07/01 01:38:52;;;;;;;9.07;7.05;;;;;;;23.27;87.88;99265.41;5110422;28;20218;-55
2022/07/01 01:41:19;;;;;;;7.45;6.45;;;;;;;23.29;87.27;99268.78;5110988;28;20220;-55
2022/07/01 01:43:47;;;;;;;6.93;6.22;;;;;;;23.29;87.28;99259.03;5110734;28;20290;-56
2022/07/01 01:46:13;;;;;;;10.27;6.57;;;;;;;23.29;87.68;99258.19;5110470;28;20202;-56
2022/07/01 01:48:40;;;;;;;7.95;7.20;;;;;;;23.28;88.32;99261.78;5110855;28;20198;-55
2022/07/01 01:51:07;;;;;;;10.43;6.65;;;;;;;23.26;88.39;99269.88;5110471;28;20195;-58
2022/07/01 01:53:34;;;;;;;8.63;7.15;;;;;;;23.20;89.36;99272.22;5110359;28;20213;-58
2022/07/01 01:56:02;;;;;;;9.95;7.18;;;;;;;23.24;89.28;99286.88;5110390;28;20197;-58
2022/07/01 01:58:29;;;;;;;7.93;7.03;;;;;;;23.22;89.91;99296.75;5110148;28;20222;-58
2022/07/01 02:00:56;;;;;;;8.65;6.88;;;;;;;23.16;90.32;99288.34;5110280;28;20276;-58
2022/07/01 02:03:23;;;;;;;9.05;6.88;;;;;;;23.11;91.04;99289.72;5110350;28;20198;-58
2022/07/01 02:05:51;;;;;;;7.65;7.03;;;;;;;23.04;91.08;99276.13;5110381;28;20226;-58
2022/07/01 02:08:18;;;;;;;10.27;7.38;;;;;;;22.92;91.65;99286.91;5110583;28;20638;-58
2022/07/01 02:10:45;;;;;;;10.43;7.28;;;;;;;22.77;92.14;99281.09;5110346;28;20198;-58
2022/07/01 02:13:13;;;;;;;12.55;7.10;;;;;;;22.85;92.47;99297.19;5110187;28;20202;-58
2022/07/01 02:15:40;;;;;;;8.52;7.60;;;;;;;22.83;92.91;99292.97;5109133;28;20616;-58
2022/07/01 02:18:07;;;;;;;10.27;7.88;;;;;;;22.82;93.13;99294.78;5108540;28;20233;-58
2022/07/01 02:20:34;;;;;;;11.43;7.70;;;;;;;22.78;92.85;99293.38;5108552;28;20195;-58
2022/07/01 02:23:01;;;;;;;12.57;9.05;;;;;;;22.66;93.55;99291.69;5109129;28;20194;-56
2022/07/01 02:25:28;;;;;;;10.98;8.52;;;;;;;22.65;93.53;99284.72;5108960;28;20201;-56
2022/07/01 02:27:55;;;;;;;9.07;8.38;;;;;;;22.66;93.22;99297.00;5108744;28;20193;-55
2022/07/01 02:30:23;;;;;;;10.15;8.60;;;;;;;22.71;92.02;99302.72;5108840;28;20190;-56
2022/07/01 02:32:50;;;;;;;10.80;8.10;;;;;;;22.64;91.34;99298.91;5106351;28;20286;-56
2022/07/01 02:35:17;;;;;;;9.52;8.07;;;;;;;22.63;91.28;99291.94;5108829;28;20209;-56
2022/07/01 02:37:44;;;;;;;9.88;8.85;;;;;;;22.62;90.61;99300.84;5110635;28;20226;-58
2022/07/01 02:40:13;;;;;;;12.63;8.43;;;;;;;22.57;90.81;99301.22;5113155;28;20198;-57
2022/07/01 02:42:39;;;;;;;8.43;7.60;;;;;;;22.60;90.63;99308.06;5112252;28;20194;-58
2022/07/01 02:45:08;;;;;;;11.27;7.60;;;;;;;22.69;90.01;99312.59;5112311;28;20686;-57
2022/07/01 02:47:37;;;;;;;8.05;7.28;;;;;;;22.66;90.11;99316.34;5112454;28;20198;-55
2022/07/01 02:50:04;;;;;;;11.18;7.60;;;;;;;22.64;90.42;99314.78;5110222;28;20198;-58
2022/07/01 02:52:34;;;;;;;11.52;8.10;;;;;;;22.60;91.86;99324.78;5112680;28;20190;-58
2022/07/01 02:55:01;;;;;;;8.40;7.65;;;;;;;22.54;91.29;99317.34;5112636;28;20277;-58
2022/07/01 02:57:28;;;;;;;9.73;7.75;;;;;;;22.46;91.56;99312.66;5112457;27;20277;-58
2022/07/01 02:59:55;;;;;;;9.93;7.97;;;;;;;22.34;92.10;99321.59;5112433;28;20222;-58
2022/07/01 03:02:22;;;;;;;7.57;6.95;;;;;;;22.29;92.13;99322.94;5109617;28;20195;-59
2022/07/01 03:04:53;;;;;;;12.18;7.28;;;;;;;22.35;92.03;99331.19;5106484;28;20234;-59
2022/07/01 03:07:21;;;;;;;11.15;7.60;;;;;;;22.36;92.03;99335.53;5111604;28;20620;-59
2022/07/01 03:09:48;;;;;;;9.35;7.20;;;;;;;22.29;91.64;99336.16;5111971;28;20612;-58
2022/07/01 03:12:28;;;;;;;9.73;7.75;;;;;;;22.19;92.19;99343.13;5111211;28;20199;-58
2022/07/01 03:14:56;;;;;;;9.18;7.63;;;;;;;22.11;92.43;99338.47;5110807;28;20213;-58
2022/07/01 03:17:23;;;;;;;8.32;7.53;;;;;;;22.13;92.92;99347.09;5111159;28;20202;-58
2022/07/01 03:19:52;;;;;;;8.30;7.22;;;;;;;22.23;91.94;99342.78;5111163;28;20545;-57
2022/07/01 03:22:21;;;;;;;7.78;7.00;;;;;;;22.23;92.18;99342.78;5108583;28;20191;-58
2022/07/01 03:24:48;;;;;;;11.25;7.18;;;;;;;22.28;92.28;99335.31;5111414;28;20248;-58
2022/07/01 03:27:15;;;;;;;7.40;6.88;;;;;;;22.40;91.34;99347.53;5110800;28;20197;-59
2022/07/01 03:29:42;;;;;;;7.78;7.05;;;;;;;22.36;90.81;99337.31;5111015;28;20654;-59
2022/07/01 03:32:10;;;;;;;7.82;7.13;;;;;;;22.38;90.66;99336.25;5111160;28;20594;-58
2022/07/01 03:34:37;;;;;;;16.45;7.57;;;;;;;22.50;90.53;99347.66;5110930;28;20686;-58
2022/07/01 03:37:06;;;;;;;8.30;7.28;;;;;;;22.50;89.96;99346.81;5110665;28;20204;-57
2022/07/01 03:39:34;;;;;;;7.28;6.72;;;;;;;22.61;89.83;99347.63;5110483;28;20221;-57
2022/07/01 03:42:01;;;;;;;9.75;7.55;;;;;;;22.75;89.04;99349.16;5109901;28;20201;-56
2022/07/01 03:44:28;;;;;;;8.15;7.30;;;;;;;22.85;88.15;99338.69;5110840;28;20190;-56
2022/07/01 03:46:55;;;;;;;9.07;8.02;;;;;;;23.02;87.49;99340.78;5110430;28;20244;-56
2022/07/01 03:49:22;;;;;;;7.72;6.93;;;;;;;23.08;85.98;99345.56;5108077;28;20197;-57
2022/07/01 03:51:49;;;;;;;7.65;6.90;;;;;;;23.14;85.69;99352.97;5107586;28;20201;-56
2022/07/01 03:54:37;;;;;;;7.18;6.43;;;;;;;23.38;84.47;99353.59;5105010;28;20187;-55
2022/07/01 03:57:05;;;;;;;11.32;6.97;;;;;;;24.72;77.85;99351.72;5107891;28;20232;-57
2022/07/01 03:59:37;;;;;;;7.38;6.50;;;;;;;26.32;68.06;99361.53;5109944;28;20225;-57
2022/07/01 04:02:05;;;;;;;7.05;6.03;;;;;;;27.53;61.51;99361.09;5106260;28;20288;-57
2022/07/01 04:04:32;;;;;;;10.25;6.22;;;;;;;28.97;55.81;99351.28;5107952;28;20203;-57
2022/07/01 04:07:01;;;;;;;7.25;6.28;;;;;;;29.98;51.34;99362.44;5110875;28;20187;-56
2022/07/01 04:09:30;;;;;;;6.63;5.82;;;;;;;31.08;48.07;99376.63;5111038;28;20194;-56
2022/07/01 04:11:57;;;;;;;13.07;11.48;;;;;;;31.43;46.55;99375.22;5107692;28;20195;-57
2022/07/01 04:14:25;;;;;;;7.10;6.10;;;;;;;32.44;44.11;99376.34;5107952;28;20191;-57
2022/07/01 04:16:53;;;;;;;9.50;8.57;;;;;;;33.27;41.85;99379.59;5109323;28;20235;-57
2022/07/01 04:19:20;;;;;;;11.40;6.18;;;;;;;33.86;40.18;99375.50;5109421;27;20250;-57
2022/07/01 04:24:33;;;;;;;8.75;6.13;;;;;;;35.43;36.91;99387.16;5109102;28;20222;-58
2022/07/01 04:27:01;;;;;;;9.68;5.93;;;;;;;36.24;35.45;99389.56;5109147;28;20195;-57
2022/07/01 04:29:29;;;;;;;6.90;6.10;;;;;;;36.33;34.59;99366.69;5108222;28;20230;-56
2022/07/01 04:31:57;;;;;;;16.33;5.85;;;;;;;36.66;34.28;99389.00;5107086;28;20186;-57
2022/07/01 04:34:24;;;;;;;9.18;4.88;;;;;;;37.39;33.33;99394.81;5106578;28;20194;-57
2022/07/01 04:36:51;;;;;;;8.23;5.47;;;;;;;37.88;32.45;99387.75;5108778;28;20615;-58
2022/07/01 04:39:18;;;;;;;10.85;6.72;;;;;;;38.57;31.71;99386.59;5107808;28;20213;-58
2022/07/01 04:42:01;;;;;;;8.20;4.70;;;;;;;39.35;29.53;99388.41;5106886;28;20289;-57
2022/07/01 04:44:32;;;;;;;5.85;5.13;;;;;;;39.59;29.42;99397.47;5107166;28;20202;-58
2022/07/01 04:47:00;;;;;;;8.55;5.28;;;;;;;39.78;29.03;99397.09;5109187;28;20289;-58
2022/07/01 04:49:27;;;;;;;6.05;5.07;;;;;;;40.78;27.56;99388.69;5102572;28;20288;-61
2022/07/01 04:51:55;;;;;;;6.80;4.53;;;;;;;41.18;27.47;99404.16;5106817;28;20196;-58
2022/07/01 04:54:22;;;;;;;6.15;5.22;;;;;;;41.55;27.24;99396.34;5108837;28;20592;-59
2022/07/01 04:56:52;;;;;;;7.78;5.13;;;;;;;41.56;26.77;99390.63;5107255;28;20671;-58
2022/07/01 04:59:19;;;;;;;9.68;4.82;;;;;;;41.62;26.14;99384.22;5105731;28;20218;-58
2022/07/01 05:01:48;;;;;;;9.57;5.50;;;;;;;40.97;27.25;99392.84;5108431;28;20654;-58
2022/07/01 05:04:17;;;;;;;5.93;5.47;;;;;;;40.71;27.73;99384.47;5109491;28;20229;-59
2022/07/01 05:06:44;;;;;;;6.15;5.63;;;;;;;41.09;27.36;99384.63;5109506;27;20194;-58
2022/07/01 05:09:11;;;;;;;6.88;4.80;;;;;;;41.13;27.06;99385.00;5109412;28;20684;-56
2022/07/01 05:11:38;;;;;;;5.88;5.15;;;;;;;41.57;26.72;99386.84;5109278;28;20201;-56
2022/07/01 05:14:07;;;;;;;6.35;5.68;;;;;;;42.20;26.40;99382.06;5109849;28;20202;-55
2022/07/01 05:16:34;;;;;;;6.57;5.22;;;;;;;42.65;25.21;99393.53;5109323;28;20240;-57
2022/07/01 05:21:58;;;;;;;8.13;5.00;;;;;;;43.10;25.29;99398.69;5108126;28;20742;-57
2022/07/01 05:24:27;;;;;;;6.85;4.90;;;;;;;43.24;24.71;99403.72;5107675;28;20217;-57
2022/07/01 05:26:54;;;;;;;7.80;4.93;;;;;;;42.65;24.67;99382.63;5108364;27;20217;-56
2022/07/01 05:29:22;;;;;;;8.25;4.38;;;;;;;42.31;25.63;99405.66;5108765;28;20190;-56
2022/07/01 05:31:49;;;;;;;6.53;4.85;;;;;;;41.70;25.97;99399.31;5109596;28;20649;-56
2022/07/01 05:34:16;;;;;;;8.60;4.90;;;;;;;40.52;27.58;99398.22;5109152;28;20237;-57
2022/07/01 05:36:43;;;;;;;5.35;4.82;;;;;;;40.63;27.30;99402.00;5109565;28;20676;-59
2022/07/01 05:39:11;;;;;;;5.07;4.68;;;;;;;41.34;26.57;99397.88;5109223;28;20213;-58
2022/07/01 05:41:38;;;;;;;5.95;4.90;;;;;;;41.72;25.83;99393.63;5110210;28;20272;-57
2022/07/01 05:44:05;;;;;;;6.53;4.80;;;;;;;42.11;26.06;99395.28;5109757;28;20201;-59
2022/07/01 05:46:34;;;;;;;9.07;4.90;;;;;;;41.42;26.53;99399.38;5109843;28;20670;-58
2022/07/01 05:49:01;;;;;;;7.85;5.10;;;;;;;41.92;25.94;99402.09;5101888;28;20581;-58
2022/07/01 05:51:27;;;;;;;6.57;4.88;;;;;;;42.23;25.93;99386.97;5108452;28;20198;-57
2022/07/01 05:53:56;;;;;;;5.43;4.65;;;;;;;42.54;25.60;99405.44;5108645;28;20194;-59
2022/07/01 05:56:23;;;;;;;7.15;4.70;;;;;;;42.88;25.42;99408.84;5108592;28;20216;-59
2022/07/01 05:58:49;;;;;;;6.57;4.82;;;;;;;42.76;25.26;99410.88;5109187;28;20308;-58
2022/07/01 06:01:16;;;;;;;14.95;4.75;;;;;;;43.31;24.85;99415.28;5109936;28;20696;-57
2022/07/01 06:03:45;;;;;;;6.53;4.32;;;;;;;43.02;24.29;99415.53;5110805;28;20637;-58
2022/07/01 06:06:12;;;;;;;5.65;4.20;;;;;;;41.87;25.41;99407.47;5110517;28;20197;-59
2022/07/01 06:08:38;;;;;;;8.10;4.60;;;;;;;41.28;25.50;99409.78;5110441;28;20239;-58
2022/07/01 06:11:05;;;;;;;10.80;4.97;;;;;;;41.20;26.20;99402.81;5109413;28;20434;-59
2022/07/01 06:13:32;;;;;;;6.65;5.32;;;;;;;41.10;26.63;99399.88;5110402;28;20198;-58
2022/07/01 06:15:59;;;;;;;10.75;4.75;;;;;;;41.31;26.24;99403.84;5109928;28;20278;-59
2022/07/01 06:18:26;;;;;;;12.07;4.35;;;;;;;41.46;26.41;99400.53;5110365;28;20297;-58
2022/07/01 06:20:55;;;;;;;9.63;4.43;;;;;;;41.12;26.37;99416.84;5110413;28;20626;-57
2022/07/01 06:23:22;;;;;;;7.50;4.43;;;;;;;40.57;27.35;99403.78;5110260;28;20726;-58
2022/07/01 06:25:49;;;;;;;6.50;4.57;;;;;;;40.56;27.73;99406.72;5110258;28;20202;-59
2022/07/01 06:28:16;;;;;;;5.57;5.07;;;;;;;40.49;27.36;99406.06;5110071;28;20715;-57
2022/07/01 06:30:45;;;;;;;8.65;5.55;;;;;;;40.45;27.75;99405.69;5110053;28;20584;-58
2022/07/01 06:33:13;;;;;;;22.77;6.30;;;;;;;40.16;27.77;99401.25;5109882;28;20229;-59
2022/07/01 06:35:41;;;;;;;12.77;6.13;;;;;;;39.96;27.88;99393.44;5109961;28;20196;-58
2022/07/01 06:38:09;;;;;;;12.75;5.57;;;;;;;39.12;28.81;99400.06;5110032;28;20708;-58
2022/07/01 06:40:36;;;;;;;8.30;5.38;;;;;;;38.79;29.68;99401.31;5105982;27;20677;-59
2022/07/01 06:43:03;;;;;;;9.52;5.70;;;;;;;38.99;29.59;99394.81;5108500;28;20609;-57
2022/07/01 06:45:30;;;;;;;9.13;5.22;;;;;;;39.10;30.19;99402.16;5108246;27;20235;-58
2022/07/01 06:47:57;;;;;;;14.05;4.85;;;;;;;39.02;29.24;99392.47;5108460;28;20246;-59
2022/07/01 06:50:24;;;;;;;6.72;4.22;;;;;;;38.74;29.02;99390.31;5107709;28;20223;-57
2022/07/01 06:52:51;;;;;;;4.93;4.53;;;;;;;38.26;30.28;99392.19;5108445;28;20218;-58
2022/07/01 06:55:19;;;;;;;7.28;6.53;;;;;;;37.45;31.01;99387.69;5107869;27;20255;-55
2022/07/01 06:57:46;;;;;;;8.55;6.07;;;;;;;36.92;32.02;99381.78;5108001;28;20226;-56
2022/07/01 07:00:14;;;;;;;8.63;5.45;;;;;;;36.98;32.38;99384.47;5107830;28;20233;-55
2022/07/01 07:02:41;;;;;;;18.85;5.63;;;;;;;37.56;32.03;99391.56;5108075;28;20210;-55
2022/07/01 07:05:09;;;;;;;12.32;6.35;;;;;;;37.44;31.60;99395.00;5107308;27;20297;-55
2022/07/01 07:07:36;;;;;;;9.60;4.57;;;;;;;37.23;31.49;99381.00;5108381;28;20485;-56
2022/07/01 07:10:04;;;;;;;9.63;4.95;;;;;;;37.57;31.72;99385.09;5108906;27;20229;-56
2022/07/01 07:12:32;;;;;;;5.82;4.10;;;;;;;37.52;31.04;99382.22;5109218;28;20717;-55
2022/07/01 07:14:59;;;;;;;6.80;5.47;;;;;;;37.60;30.96;99373.81;5109187;28;20743;-57
2022/07/01 07:17:26;;;;;;;6.82;4.25;;;;;;;37.12;31.73;99365.44;5123409;28;20225;-57
2022/07/01 07:19:55;;;;;;;9.23;4.65;;;;;;;37.24;31.86;99375.38;5129285;27;20221;-58
2022/07/01 07:22:22;;;;;;;10.30;4.20;;;;;;;36.33;32.58;99377.50;5121460;27;20731;-58
2022/07/01 07:24:49;;;;;;;6.05;4.90;;;;;;;36.68;32.62;99369.84;5112031;28;20198;-55
2022/07/01 07:27:16;;;;;;;5.57;5.10;;;;;;;37.24;31.93;99366.44;5111220;28;20207;-55
2022/07/01 07:29:44;;;;;;;5.45;4.30;;;;;;;37.69;31.39;99372.53;5112618;28;20206;-55
2022/07/01 07:32:11;;;;;;;8.95;4.47;;;;;;;37.95;30.93;99366.81;5112341;28;20562;-55
2022/07/01 07:34:38;;;;;;;4.85;4.43;;;;;;;38.04;30.21;99376.31;5113227;28;20198;-55
2022/07/01 07:37:05;;;;;;;7.28;4.30;;;;;;;38.18;30.79;99376.19;5112931;28;20191;-55
2022/07/01 07:39:32;;;;;;;7.25;4.68;;;;;;;38.11;30.34;99376.28;5112854;28;20226;-57
2022/07/01 07:41:59;;;;;;;4.90;4.50;;;;;;;37.87;31.14;99377.97;5112836;28;20206;-56
2022/07/01 07:44:26;;;;;;;4.65;4.25;;;;;;;38.11;31.00;99370.84;5112927;28;20190;-56
2022/07/01 07:46:56;;;;;;;6.28;4.07;;;;;;;38.57;29.37;99385.78;5113130;28;20670;-56
2022/07/01 07:49:23;;;;;;;4.40;4.00;;;;;;;38.55;29.21;99372.44;5112991;28;20639;-56
2022/07/01 07:51:50;;;;;;;4.57;4.15;;;;;;;38.47;29.71;99373.56;5112659;28;20194;-56
2022/07/01 07:54:17;;;;;;;8.20;4.03;;;;;;;38.39;29.72;99373.00;5112938;28;20706;-58
2022/07/01 07:56:44;;;;;;;6.85;4.30;;;;;;;38.38;29.87;99372.19;5112828;28;20769;-59
2022/07/01 07:59:11;;;;;;;6.43;3.80;;;;;;;38.65;29.35;99371.88;5112470;28;20195;-58
2022/07/01 08:01:38;;;;;;;9.88;4.20;;;;;;;39.05;28.94;99375.72;5112599;28;20661;-56
2022/07/01 08:04:07;;;;;;;13.95;4.97;;;;;;;39.52;28.43;99378.53;5112484;28;20585;-59
2022/07/01 08:06:33;;;;;;;7.20;4.35;;;;;;;39.43;29.31;99372.63;5112371;28;20209;-59
2022/07/01 08:09:00;;;;;;;9.07;4.38;;;;;;;39.47;28.64;99384.69;5112368;28;20204;-58
2022/07/01 08:11:27;;;;;;;10.20;4.50;;;;;;;39.69;28.47;99384.09;5112390;28;20194;-56
2022/07/01 08:13:54;;;;;;;4.72;4.00;;;;;;;39.86;27.39;99363.31;5112416;28;20284;-55
2022/07/01 08:16:21;;;;;;;10.35;4.93;;;;;;;39.77;27.86;99378.31;5112116;28;20257;-55
2022/07/01 08:18:48;;;;;;;5.60;4.32;;;;;;;39.77;28.05;99379.13;5112276;28;20277;-55
2022/07/01 08:21:17;;;;;;;4.60;3.88;;;;;;;40.40;27.40;99374.84;5112000;28;20225;-56
2022/07/01 08:23:44;;;;;;;8.85;4.13;;;;;;;40.92;26.75;99379.16;5111918;28;20198;-59
2022/07/01 08:26:14;;;;;;;5.63;4.20;;;;;;;40.90;27.00;99380.47;5111922;28;20190;-58
2022/07/01 08:28:47;;;;;;;5.28;4.57;;;;;;;40.55;26.85;99386.03;5111880;28;20198;-58
2022/07/01 08:31:14;;;;;;;4.53;3.78;;;;;;;40.14;27.63;99370.75;5111125;28;20198;-59
2022/07/01 08:33:43;;;;;;;5.72;4.13;;;;;;;40.74;26.88;99368.50;5110746;28;20194;-59
2022/07/01 08:36:10;;;;;;;6.80;4.63;;;;;;;41.07;26.52;99377.78;5111949;28;20293;-59
2022/07/01 08:38:39;;;;;;;5.32;4.15;;;;;;;41.00;26.31;99369.75;5111785;28;20233;-59
2022/07/01 08:41:06;;;;;;;6.90;4.10;;;;;;;40.82;27.04;99372.69;5111663;28;20220;-55
2022/07/01 08:43:33;;;;;;;6.20;3.60;;;;;;;40.71;26.63;99377.13;5111768;28;20190;-56
2022/07/01 08:46:01;;;;;;;6.57;4.10;;;;;;;40.41;26.64;99369.16;5111721;28;20280;-56
2022/07/01 08:48:29;;;;;;;3.88;3.58;;;;;;;40.05;26.56;99367.56;5111971;28;20198;-58
2022/07/01 08:50:56;;;;;;;3.97;3.67;;;;;;;39.69;26.56;99363.19;5111604;28;20198;-57
2022/07/01 08:53:23;;;;;;;6.90;3.75;;;;;;;39.10;27.62;99361.44;5111338;28;20220;-59
2022/07/01 08:58:36;;;;;;;8.82;4.45;;;;;;;38.76;29.69;99360.25;5089913;28;20194;-58
2022/07/01 09:01:14;;;;;;;5.05;4.07;;;;;;;38.30;29.21;99347.28;5111557;28;20804;-58
2022/07/01 09:03:41;;;;;;;6.18;4.35;;;;;;;37.80;29.94;99336.56;5111704;28;20220;-58
2022/07/01 09:06:13;;;;;;;8.52;4.22;;;;;;;37.55;31.52;99343.88;5111396;28;20593;-59
2022/07/01 09:08:40;;;;;;;5.80;4.43;;;;;;;37.91;29.94;99335.81;5111167;28;20639;-58
2022/07/01 09:11:14;;;;;;;6.22;3.92;;;;;;;38.15;30.06;99329.50;5111104;28;20281;-59
2022/07/01 09:13:42;;;;;;;7.85;4.10;;;;;;;38.17;28.97;99342.84;5111261;28;20282;-59
2022/07/01 09:16:13;;;;;;;6.85;4.40;;;;;;;38.22;30.22;99337.56;5110977;28;20670;-59
2022/07/01 09:18:40;;;;;;;8.25;5.00;;;;;;;38.00;30.12;99337.19;5111028;28;20198;-57
2022/07/01 09:21:13;;;;;;;5.40;4.70;;;;;;;37.51;29.94;99337.22;5111010;28;20222;-58
2022/07/01 09:23:40;;;;;;;4.75;4.20;;;;;;;37.72;29.68;99336.84;5108820;28;20208;-58
2022/07/01 09:26:07;;;;;;;7.43;4.35;;;;;;;37.74;30.23;99332.88;5106294;28;20198;-57
2022/07/01 09:28:36;;;;;;;6.88;4.25;;;;;;;38.02;29.94;99337.78;5107842;28;20202;-58
2022/07/01 09:31:03;;;;;;;5.22;4.00;;;;;;;38.10;29.52;99328.53;5100835;28;20204;-57
2022/07/01 09:33:30;;;;;;;5.32;3.92;;;;;;;37.87;29.50;99336.50;5090622;28;20559;-56
2022/07/01 09:35:59;;;;;;;4.78;4.05;;;;;;;37.81;30.04;99332.81;5093230;28;20194;-57
2022/07/01 09:38:27;;;;;;;6.28;4.25;;;;;;;38.12;29.18;99334.56;5110245;28;20675;-57
2022/07/01 09:40:55;;;;;;;4.75;4.30;;;;;;;37.95;29.43;99330.75;5109950;28;20252;-55
2022/07/01 09:43:24;;;;;;;4.40;3.72;;;;;;;38.02;29.48;99326.13;5109912;28;20197;-56
2022/07/01 09:46:04;;;;;;;4.20;3.70;;;;;;;37.57;29.45;99328.22;5109522;28;20194;-57
2022/07/01 09:48:44;;;;;;;5.35;3.90;;;;;;;37.54;29.72;99320.53;5108388;28;20190;-57
2022/07/01 09:51:12;;;;;;;8.45;4.00;;;;;;;37.63;29.38;99325.47;5108076;28;20592;-55
2022/07/01 09:53:39;;;;;;;4.18;3.92;;;;;;;37.79;29.22;99321.38;5110012;28;20216;-56
2022/07/01 09:56:06;;;;;;;5.40;4.03;;;;;;;37.96;29.49;99316.16;5110346;28;20194;-55
2022/07/01 09:58:35;;;;;;;4.63;4.22;;;;;;;38.34;28.98;99318.66;5110667;28;20600;-56
2022/07/01 10:01:04;;;;;;;9.00;4.70;;;;;;;38.39;29.31;99319.59;5110359;28;20217;-56
2022/07/01 10:03:33;;;;;;;7.00;4.72;;;;;;;38.42;28.73;99318.31;5110734;28;20657;-56
2022/07/01 10:06:19;;;;;;;7.68;4.15;;;;;;;38.45;28.93;99318.72;5110492;28;20558;-56
2022/07/01 10:08:59;;;;;;;9.95;4.85;;;;;;;37.98;29.57;99312.19;5110722;28;20198;-57
2022/07/01 10:11:54;;;;;;;6.10;4.43;;;;;;;37.62;29.56;99312.16;5110053;28;20280;-57
2022/07/01 10:14:22;;;;;;;4.50;4.20;;;;;;;37.72;30.29;99307.03;5107157;28;20205;-57
2022/07/01 10:16:51;;;;;;;6.47;4.22;;;;;;;37.89;29.54;99313.53;5110008;28;20730;-58
2022/07/01 10:19:28;;;;;;;4.68;4.22;;;;;;;37.65;30.10;99317.13;5110202;28;20194;-56
2022/07/01 10:22:00;;;;;;;5.18;4.45;;;;;;;37.93;29.48;99311.19;5096814;28;20222;-57
2022/07/01 10:24:28;;;;;;;4.70;3.97;;;;;;;37.82;28.61;99307.34;5089020;28;20774;-58
2022/07/01 10:27:00;;;;;;;6.15;3.92;;;;;;;37.72;28.37;99304.34;5089451;28;20214;-58
2022/07/01 10:29:28;;;;;;;5.47;3.97;;;;;;;37.39;28.08;99307.34;5089467;28;20234;-57
2022/07/01 10:32:01;;;;;;;8.45;4.57;;;;;;;37.44;28.26;99299.41;5101927;28;20621;-56
2022/07/01 10:34:35;;;;;;;11.90;5.03;;;;;;;37.09;28.01;99285.50;5109710;28;20289;-56
2022/07/01 10:37:04;;;;;;;6.47;4.60;;;;;;;36.76;29.54;99287.63;5110123;28;20280;-56
2022/07/01 10:39:31;;;;;;;6.07;5.07;;;;;;;36.74;30.09;99282.44;5109879;28;20279;-58
2022/07/01 10:42:04;;;;;;;5.32;3.92;;;;;;;36.57;30.53;99275.88;5109663;28;20222;-57
2022/07/01 10:44:35;;;;;;;6.07;5.53;;;;;;;36.29;30.66;99268.13;5109809;28;20191;-57
2022/07/01 10:47:06;;;;;;;8.48;4.13;;;;;;;36.17;30.63;99280.63;5110213;28;20239;-57
2022/07/01 10:50:08;;;;;;;5.85;4.53;;;;;;;36.42;30.65;99270.78;5109923;28;20210;-58
2022/07/01 10:52:35;;;;;;;5.93;4.47;;;;;;;36.26;30.22;99257.75;5109681;28;20200;-57
2022/07/01 10:55:04;;;;;;;4.90;4.40;;;;;;;36.40;30.50;99264.75;5109713;28;20194;-57
2022/07/01 10:57:37;;;;;;;8.00;4.50;;;;;;;36.56;30.60;99258.84;5109578;28;20195;-58
2022/07/01 11:00:34;;;;;;;5.95;5.30;;;;;;;36.44;30.31;99257.88;5113131;27;20600;-57
2022/07/01 11:03:14;;;;;;;8.98;5.07;;;;;;;36.31;30.70;99264.19;5111202;28;20214;-58
2022/07/01 11:05:41;;;;;;;6.03;4.60;;;;;;;36.15;30.05;99269.19;5110920;28;20554;-58
2022/07/01 11:08:09;;;;;;;8.18;4.30;;;;;;;36.20;29.23;99262.13;5113332;28;20195;-56
2022/07/01 11:10:36;;;;;;;8.43;4.85;;;;;;;36.07;28.48;99273.00;5110374;28;20191;-56
2022/07/01 11:13:04;;;;;;;5.00;4.50;;;;;;;36.42;27.82;99268.06;5112923;28;20237;-56
2022/07/01 11:15:31;;;;;;;4.57;4.18;;;;;;;36.54;28.10;99265.50;5112609;28;20576;-56
2022/07/01 11:18:00;;;;;;;4.57;4.10;;;;;;;36.53;27.61;99269.25;5112859;28;20237;-56
2022/07/01 11:20:31;;;;;;;5.63;5.00;;;;;;;36.17;28.31;99269.81;5112391;28;20214;-58
2022/07/01 11:22:58;;;;;;;6.03;4.68;;;;;;;36.29;28.00;99258.16;5110633;28;20517;-57
2022/07/01 11:25:26;;;;;;;5.65;5.15;;;;;;;36.19;28.80;99251.53;5112592;28;20197;-57
2022/07/01 11:27:53;;;;;;;7.97;4.60;;;;;;;36.19;28.06;99246.94;5112647;28;20218;-58
2022/07/01 11:30:22;;;;;;;6.82;6.00;;;;;;;35.99;28.47;99251.63;5112550;28;20307;-57
2022/07/01 11:32:50;;;;;;;8.18;5.30;;;;;;;35.94;28.55;99244.16;5112148;28;20202;-57
2022/07/01 11:41:01;;;;;;;5.50;5.03;;;;;;;35.76;29.76;99227.00;5112131;28;20255;-58
2022/07/01 11:43:30;;;;;;;5.95;4.28;;;;;;;35.99;29.79;99235.41;5111679;28;20183;-56
2022/07/01 11:46:01;;;;;;;5.25;4.35;;;;;;;36.21;29.93;99230.53;5112091;28;20194;-56
2022/07/01 11:48:49;;;;;;;5.47;4.63;;;;;;;36.40;29.54;99224.19;5112034;28;20206;-55
2022/07/01 11:51:18;;;;;;;6.63;6.15;;;;;;;36.46;28.72;99223.31;5110220;28;20187;-56